Seneca Cors, Wisconsin
Current Conditions -  °F | °C
As of 8:54 PM on Thursday 27 Nov 2014 (Local Time) from KISW Reporting Station
Clear Clear  
Wind Chill: -1°   Ceiling: Unl
Heat Index: -1°   Visibility: 10mi
Dew Point: -6°   Wind: 0mph
Humidity: 79%   Direction: NA
Pressure: 30.36"   Gusts: NA
Location:  44.4583°N, 90.0009°W
Report Text: KISW 280254Z AUTO 00000KT 10SM CLR M18/M21 A3036 RMK AO2 SLP307 I1000 I3000 T11831211 58007 $
Loading
Personal Weather Stations






























Interactive Weather Map New forecast layout! Learn more

10-Day Weather Forecast

Advertisements
Track Severe Weather on mobile